Time;durP1;ratioP1;P1;durP2;ratioP2;P2;SDS_P1;SDS_P2;PMS_P1;PMS_P2;Temp;Humidity;BMP_temperature;BMP_pressure;BME280_temperature;BME280_humidity;BME280_pressure;Samples;Min_cycle;Max_cycle;Signal;HPM_P1;HPM_P2
2023/03/28 00:01:53;;;;;;;11.40;1.40;;;-0.20;99.90;;;;;;4985962;28;20053;-39
2023/03/28 00:04:21;;;;;;;17.55;1.85;;;-0.10;99.90;;;;;;4987457;28;20050;-39
2023/03/28 00:06:50;;;;;;;15.52;0.95;;;-0.20;99.90;;;;;;4986612;28;20054;-39
2023/03/28 00:09:17;;;;;;;12.55;0.98;;;-0.20;99.90;;;;;;4985357;28;20049;-39
2023/03/28 00:11:43;;;;;;;12.00;0.90;;;-0.20;99.90;;;;;;4986743;28;20154;-39
2023/03/28 00:14:09;;;;;;;17.90;3.90;;;-0.30;99.90;;;;;;4986807;28;20527;-39
2023/03/28 00:16:38;;;;;;;9.60;1.17;;;-0.40;99.90;;;;;;4987007;28;20065;-39
2023/03/28 00:19:09;;;;;;;11.70;1.33;;;-0.40;99.90;;;;;;4986781;28;20528;-39
2023/03/28 00:21:38;;;;;;;9.85;2.00;;;-0.40;99.90;;;;;;4986743;28;20050;-39
2023/03/28 00:24:09;;;;;;;12.90;0.90;;;-0.50;99.90;;;;;;4986814;28;20730;-39
2023/03/28 00:26:36;;;;;;;13.20;1.10;;;-0.70;99.90;;;;;;4986398;28;20050;-38
2023/03/28 00:29:04;;;;;;;14.95;0.70;;;-0.60;99.90;;;;;;4986710;28;20039;-38
2023/03/28 00:31:31;;;;;;;11.43;1.52;;;-0.60;99.90;;;;;;4986986;28;20042;-38
2023/03/28 00:33:57;;;;;;;5.38;0.82;;;-0.70;99.90;;;;;;4987152;28;20053;-39
2023/03/28 00:36:25;;;;;;;7.30;0.60;;;-1.10;99.90;;;;;;4987247;28;20049;-39
2023/03/28 00:38:52;;;;;;;14.15;0.88;;;-0.70;99.90;;;;;;4987099;28;20049;-39
2023/03/28 00:41:22;;;;;;;7.88;0.70;;;-0.80;99.90;;;;;;4987087;28;20049;-39
2023/03/28 00:43:52;;;;;;;9.38;0.82;;;-0.80;99.90;;;;;;4986258;28;20042;-39
2023/03/28 00:46:32;;;;;;;18.63;1.00;;;1.90;99.90;;;;;;4985872;28;20599;-39
2023/03/28 00:49:16;;;;;;;8.93;1.02;;;-0.90;99.90;;;;;;4986930;28;20046;-39
2023/03/28 00:51:49;;;;;;;10.45;1.17;;;-0.80;99.90;;;;;;4987809;28;20042;-39
2023/03/28 00:54:18;;;;;;;11.25;0.90;;;-0.80;99.90;;;;;;4990463;28;20129;-40
2023/03/28 00:56:47;;;;;;;12.00;1.33;;;-0.80;99.90;;;;;;4989914;28;20535;-40
2023/03/28 00:59:18;;;;;;;13.65;0.95;;;-0.80;99.90;;;;;;4990002;28;20774;-39
2023/03/28 01:01:45;;;;;;;17.67;2.95;;;-0.80;99.90;;;;;;4990243;28;20048;-39
2023/03/28 01:04:11;;;;;;;8.10;0.98;;;-0.80;99.90;;;;;;4989748;28;20092;-39
2023/03/28 01:06:47;;;;;;;12.45;0.88;;;-0.80;99.90;;;;;;4989881;28;20065;-39
2023/03/28 01:09:15;;;;;;;12.13;0.90;;;-0.80;99.90;;;;;;4990115;28;20137;-39
2023/03/28 01:11:44;;;;;;;10.30;1.10;;;-0.90;99.90;;;;;;5004664;28;20045;-39
2023/03/28 01:14:14;;;;;;;11.13;1.20;;;-0.70;99.90;;;;;;4989795;28;20085;-39
2023/03/28 01:16:40;;;;;;;14.13;1.70;;;-0.90;99.90;;;;;;4989490;28;20049;-39
2023/03/28 01:19:35;;;;;;;11.00;1.20;;;-1.00;99.90;;;;;;4989718;28;20074;-39
2023/03/28 01:22:18;;;;;;;5.70;0.60;;;-0.90;99.90;;;;;;4989711;28;20042;-39
2023/03/28 01:25:35;;;;;;;17.65;1.10;;;-0.90;99.90;;;;;;4987960;28;20038;-39
2023/03/28 01:28:30;;;;;;;12.63;0.80;;;-0.90;99.90;;;;;;4987483;28;20057;-39
2023/03/28 01:31:19;;;;;;;10.93;1.13;;;-0.90;99.90;;;;;;4989413;28;20053;-39
2023/03/28 01:33:48;;;;;;;10.40;1.20;;;-1.00;99.90;;;;;;4989816;28;20097;-39
2023/03/28 01:36:44;;;;;;;9.23;0.75;;;-1.00;99.90;;;;;;4989732;28;20046;-39
2023/03/28 01:39:32;;;;;;;15.02;0.93;;;-1.10;99.90;;;;;;4989646;28;20038;-39
2023/03/28 01:42:17;;;;;;;9.23;0.80;;;-0.60;99.90;;;;;;4989349;28;20049;-39
2023/03/28 01:44:51;;;;;;;10.75;0.80;;;-1.10;99.90;;;;;;4988708;28;20093;-39
2023/03/28 01:47:17;;;;;;;15.25;2.30;;;-1.10;99.90;;;;;;4989329;28;20054;-39
2023/03/28 01:49:54;;;;;;;9.27;1.25;;;-0.90;99.90;;;;;;4989184;28;20039;-39
2023/03/28 01:52:29;;;;;;;9.68;0.77;;;-1.20;99.90;;;;;;4989494;28;20081;-39
2023/03/28 01:54:59;;;;;;;16.73;1.63;;;-1.10;99.90;;;;;;4988014;28;20518;-39
2023/03/28 01:57:25;;;;;;;15.27;1.20;;;;;;;;;;4990086;28;20050;-39
2023/03/28 02:00:18;;;;;;;11.40;0.93;;;-1.10;99.90;;;;;;4989395;28;20837;-39
2023/03/28 02:02:57;;;;;;;11.10;0.90;;;-1.20;99.90;;;;;;4989501;28;20044;-39
2023/03/28 02:05:26;;;;;;;9.15;0.93;;;-1.20;99.90;;;;;;4989272;28;20050;-39
2023/03/28 02:07:53;;;;;;;9.30;0.80;;;-1.20;99.90;;;;;;4989373;28;20136;-39
2023/03/28 02:10:24;;;;;;;18.48;2.13;;;-1.10;99.90;;;;;;4989408;28;20034;-39
2023/03/28 02:13:01;;;;;;;10.68;0.95;;;-1.20;99.90;;;;;;4989290;28;20038;-39
2023/03/28 02:15:31;;;;;;;19.67;1.38;;;-1.20;99.90;;;;;;4987604;28;20232;-39
2023/03/28 02:18:05;;;;;;;13.23;1.60;;;-1.10;99.90;;;;;;4988710;28;20087;-39
2023/03/28 02:20:34;;;;;;;10.15;1.42;;;-1.10;99.90;;;;;;4987321;28;20121;-39
2023/03/28 02:23:07;;;;;;;14.18;0.90;;;-1.10;99.90;;;;;;4988038;28;20038;-39
2023/03/28 02:25:33;;;;;;;8.90;0.85;;;0.20;99.90;;;;;;4988868;28;20512;-39
2023/03/28 02:28:04;;;;;;;17.88;2.03;;;-1.20;99.90;;;;;;4988507;28;20047;-39
2023/03/28 02:30:30;;;;;;;11.48;1.40;;;-1.20;99.90;;;;;;4989061;28;20054;-39
2023/03/28 02:33:01;;;;;;;10.68;1.25;;;-1.30;99.90;;;;;;4988403;28;20485;-38
2023/03/28 02:35:39;;;;;;;11.85;0.98;;;-1.20;99.90;;;;;;4988896;28;20468;-39
2023/03/28 02:38:11;;;;;;;6.88;0.40;;;-1.20;99.90;;;;;;4988499;28;20476;-38
2023/03/28 02:41:07;;;;;;;7.57;1.00;;;-1.30;99.90;;;;;;4988907;28;20468;-38
2023/03/28 02:43:55;;;;;;;12.05;1.02;;;-1.20;99.90;;;;;;4989016;28;20042;-39
2023/03/28 02:46:45;;;;;;;18.17;1.10;;;-1.30;99.90;;;;;;4988794;28;20046;-38
2023/03/28 02:49:19;;;;;;;13.25;0.90;;;-1.30;99.90;;;;;;4988109;28;20863;-39
2023/03/28 02:52:14;;;;;;;18.75;1.42;;;-1.40;99.90;;;;;;4987940;28;20046;-38
2023/03/28 02:55:06;;;;;;;12.23;1.55;;;-1.30;99.90;;;;;;4988422;28;20046;-38
2023/03/28 02:57:37;;;;;;;15.30;1.90;;;-1.40;99.90;;;;;;4987763;28;20120;-39
2023/03/28 03:00:10;;;;;;;6.85;0.43;;;-1.40;99.90;;;;;;4987374;28;20512;-38
2023/03/28 03:02:36;;;;;;;16.92;1.25;;;-1.40;99.90;;;;;;4988060;28;20755;-38
2023/03/28 03:05:02;;;;;;;13.70;1.05;;;-1.40;99.90;;;;;;4988167;28;20085;-39
2023/03/28 03:07:29;;;;;;;9.20;1.05;;;-1.40;99.90;;;;;;4988140;28;20125;-39
2023/03/28 03:09:55;;;;;;;12.23;1.23;;;-1.30;99.90;;;;;;4987829;28;20046;-38
2023/03/28 03:12:22;;;;;;;7.07;1.38;;;-1.40;99.90;;;;;;4987859;28;20053;-38
2023/03/28 03:14:49;;;;;;;14.38;0.90;;;-1.40;99.90;;;;;;4987603;28;20054;-38
2023/03/28 03:17:18;;;;;;;12.95;2.00;;;-1.30;99.90;;;;;;4987853;28;20054;-38
2023/03/28 03:19:44;;;;;;;10.70;0.63;;;-1.30;99.90;;;;;;4987585;28;20646;-38
2023/03/28 03:22:10;;;;;;;12.18;1.08;;;-1.30;99.90;;;;;;4987302;28;20137;-38
2023/03/28 03:24:36;;;;;;;8.98;1.67;;;-1.30;99.90;;;;;;4987752;28;20433;-38
2023/03/28 03:27:02;;;;;;;11.77;0.60;;;-0.70;99.90;;;;;;4987595;28;20050;-38
2023/03/28 03:29:28;;;;;;;14.38;0.77;;;-1.10;99.90;;;;;;4987780;28;20042;-38
2023/03/28 03:31:54;;;;;;;14.93;1.02;;;-1.40;99.90;;;;;;4987813;28;20057;-38
2023/03/28 03:34:20;;;;;;;13.00;1.10;;;-1.50;99.90;;;;;;4986780;28;20054;-38
2023/03/28 03:36:48;;;;;;;6.97;1.23;;;-1.50;99.90;;;;;;4987409;28;20424;-38
2023/03/28 03:39:14;;;;;;;9.27;1.02;;;-1.20;99.90;;;;;;4987544;28;20049;-38
2023/03/28 03:41:40;;;;;;;12.10;1.50;;;;;;;;;;4988165;28;20061;-38
2023/03/28 03:44:06;;;;;;;9.38;1.10;;;-1.20;99.90;;;;;;4987210;28;20069;-38
2023/03/28 03:46:32;;;;;;;10.10;0.88;;;-1.20;99.90;;;;;;4987313;28;20046;-38
2023/03/28 03:48:58;;;;;;;14.30;1.60;;;;;;;;;;4987453;28;20054;-39
2023/03/28 03:51:24;;;;;;;11.50;1.20;;;-1.20;99.90;;;;;;4987443;28;20053;-39
2023/03/28 03:53:50;;;;;;;14.15;1.58;;;-1.30;99.90;;;;;;4987742;28;20050;-39
2023/03/28 03:56:16;;;;;;;12.73;1.48;;;-1.40;99.90;;;;;;4987377;28;20050;-39
2023/03/28 03:58:42;;;;;;;12.35;0.80;;;-1.60;99.90;;;;;;4987341;28;20053;-39
2023/03/28 04:01:12;;;;;;;15.95;1.23;;;-1.70;99.90;;;;;;4987247;28;20053;-39
2023/03/28 04:03:39;;;;;;;16.92;1.80;;;-1.70;99.90;;;;;;4986830;28;20448;-39
2023/03/28 04:06:05;;;;;;;18.58;1.20;;;-1.80;99.90;;;;;;4987385;28;20050;-39
2023/03/28 04:08:31;;;;;;;16.00;1.73;;;-1.90;99.90;;;;;;4987301;28;20479;-39
2023/03/28 04:10:57;;;;;;;11.43;1.20;;;;;;;;;;4987285;28;20046;-39
2023/03/28 04:13:23;;;;;;;9.88;0.95;;;;;;;;;;4986951;28;20053;-39
2023/03/28 04:15:50;;;;;;;12.23;0.85;;;;;;;;;;4987021;28;20061;-39
2023/03/28 04:18:19;;;;;;;8.77;0.95;;;-1.70;99.90;;;;;;4986608;28;20038;-39
2023/03/28 04:20:54;;;;;;;14.82;2.13;;;-1.50;99.90;;;;;;4964832;28;20237;-39
2023/03/28 04:23:24;;;;;;;10.13;0.68;;;-0.90;99.90;;;;;;4977301;28;20404;-38
2023/03/28 04:25:54;;;;;;;7.78;1.50;;;-1.20;99.90;;;;;;4982436;28;20086;-38
2023/03/28 04:28:24;;;;;;;11.10;1.27;;;-1.50;99.90;;;;;;4988133;28;20548;-37
2023/03/28 04:30:53;;;;;;;10.10;1.05;;;-1.70;99.90;;;;;;4987649;28;20042;-38
2023/03/28 04:33:23;;;;;;;14.77;1.17;;;-1.50;99.90;;;;;;4986943;28;20154;-38
2023/03/28 04:36:00;;;;;;;12.70;2.00;;;-1.70;99.90;;;;;;4988162;28;20058;-39
2023/03/28 04:38:28;;;;;;;8.07;1.23;;;-1.60;99.90;;;;;;4988531;28;20086;-39
2023/03/28 04:40:57;;;;;;;9.75;1.65;;;-1.80;99.90;;;;;;4988812;28;20046;-38
2023/03/28 04:43:27;;;;;;;15.52;1.67;;;-1.60;99.90;;;;;;4987028;28;20053;-37
2023/03/28 04:45:53;;;;;;;8.13;1.20;;;-1.60;99.90;;;;;;4988179;28;20061;-36
2023/03/28 04:48:19;;;;;;;13.95;1.63;;;-1.60;99.90;;;;;;4989360;28;20058;-39
2023/03/28 04:50:45;;;;;;;12.07;1.00;;;-1.60;99.90;;;;;;4989616;28;20042;-39
2023/03/28 04:53:12;;;;;;;12.48;1.55;;;-1.60;99.90;;;;;;4989391;28;20052;-38
2023/03/28 04:55:38;;;;;;;10.23;0.80;;;-1.50;99.90;;;;;;4989603;28;20077;-38
2023/03/28 04:58:05;;;;;;;10.63;0.85;;;-1.70;99.90;;;;;;4989665;28;20038;-37
2023/03/28 05:00:31;;;;;;;10.90;3.47;;;-1.90;99.90;;;;;;4989443;28;20171;-37
2023/03/28 05:03:00;;;;;;;11.65;2.03;;;-1.00;99.90;;;;;;4989001;28;20078;-37
2023/03/28 05:05:26;;;;;;;14.40;1.15;;;-1.50;99.90;;;;;;4988847;28;20050;-37
2023/03/28 05:07:52;;;;;;;7.22;1.13;;;;;;;;;;4989273;28;20038;-37
2023/03/28 05:10:18;;;;;;;9.32;1.30;;;;;;;;;;4988754;28;20359;-38
2023/03/28 05:12:44;;;;;;;14.23;1.83;;;;;;;;;;4989229;28;20081;-38
2023/03/28 05:15:11;;;;;;;10.30;1.92;;;;;;;;;;4988890;28;20090;-38
2023/03/28 05:17:36;;;;;;;9.38;1.30;;;-1.40;99.90;;;;;;4987580;28;20057;-37
2023/03/28 05:20:07;;;;;;;13.52;0.98;;;-1.40;99.90;;;;;;4989031;28;20809;-37
2023/03/28 05:22:32;;;;;;;10.80;1.90;;;-1.60;99.90;;;;;;4989107;28;20050;-38
2023/03/28 05:24:58;;;;;;;17.45;1.40;;;-1.50;99.90;;;;;;4989270;28;20062;-38
2023/03/28 05:27:24;;;;;;;11.32;1.58;;;-1.50;99.90;;;;;;4988893;28;20061;-38
2023/03/28 05:29:50;;;;;;;10.52;1.10;;;-1.50;99.90;;;;;;4989116;28;20430;-38
2023/03/28 05:32:15;;;;;;;15.95;1.15;;;-1.40;99.90;;;;;;4988729;28;20042;-37
2023/03/28 05:34:41;;;;;;;12.23;1.27;;;-1.50;99.90;;;;;;4988399;28;20085;-38
2023/03/28 05:37:07;;;;;;;12.25;2.08;;;-1.30;99.90;;;;;;4988808;28;20050;-38
2023/03/28 05:39:32;;;;;;;12.80;1.33;;;-1.10;99.90;;;;;;4989323;28;20050;-38
2023/03/28 05:41:58;;;;;;;11.85;0.75;;;-0.60;99.90;;;;;;4988838;28;20048;-38
2023/03/28 05:44:24;;;;;;;14.43;1.13;;;;;;;;;;4988479;28;20523;-37
2023/03/28 05:46:50;;;;;;;14.70;1.30;;;;;;;;;;4988809;28;20053;-38
2023/03/28 05:49:16;;;;;;;11.20;1.48;;;-0.10;99.90;;;;;;4988677;28;20165;-38
2023/03/28 05:51:41;;;;;;;11.32;1.38;;;0.00;99.90;;;;;;4988004;28;20120;-38
2023/03/28 05:54:07;;;;;;;11.52;1.50;;;0.40;99.90;;;;;;4988124;28;20093;-38
2023/03/28 05:56:34;;;;;;;10.98;1.42;;;0.40;99.90;;;;;;4988101;28;20054;-38
2023/03/28 05:59:01;;;;;;;13.88;1.30;;;1.00;99.90;;;;;;4988624;28;20045;-38
2023/03/28 06:01:27;;;;;;;12.10;1.17;;;1.90;99.90;;;;;;4988091;28;20540;-38
2023/03/28 06:03:54;;;;;;;17.25;2.42;;;2.30;99.90;;;;;;4987380;28;20117;-38
2023/03/28 06:06:20;;;;;;;11.40;1.55;;;3.00;99.90;;;;;;4986532;28;20048;-38
2023/03/28 06:08:46;;;;;;;9.32;0.77;;;3.60;99.90;;;;;;4986508;28;20102;-38
2023/03/28 06:11:12;;;;;;;14.25;1.88;;;4.00;99.90;;;;;;4988167;28;20046;-39
2023/03/28 06:13:38;;;;;;;7.47;0.98;;;4.70;99.90;;;;;;4988207;28;20070;-39
2023/03/28 06:16:04;;;;;;;11.45;2.05;;;4.60;99.90;;;;;;4987970;28;20170;-38
2023/03/28 06:18:30;;;;;;;8.75;0.90;;;5.30;99.90;;;;;;4987116;28;20140;-39
2023/03/28 06:20:55;;;;;;;8.60;1.00;;;5.30;99.90;;;;;;4987615;28;20085;-38
2023/03/28 06:23:21;;;;;;;10.20;1.42;;;7.20;99.90;;;;;;4986096;28;20046;-39
2023/03/28 06:25:47;;;;;;;7.60;1.20;;;5.00;99.90;;;;;;4987851;28;20050;-39
2023/03/28 06:28:13;;;;;;;10.65;0.93;;;4.40;99.90;;;;;;4987896;28;20042;-39
2023/03/28 06:30:38;;;;;;;9.10;0.95;;;3.90;99.90;;;;;;4987630;28;20125;-39
2023/03/28 06:33:05;;;;;;;10.25;1.65;;;3.80;99.90;;;;;;4987042;28;20124;-39
2023/03/28 06:35:31;;;;;;;8.45;0.90;;;3.80;99.90;;;;;;4987792;28;20171;-39
2023/03/28 06:37:57;;;;;;;14.00;2.60;;;4.00;99.90;;;;;;4987621;28;20169;-38
2023/03/28 06:40:24;;;;;;;14.52;1.33;;;3.70;99.90;;;;;;4987683;28;20479;-39
2023/03/28 06:42:49;;;;;;;9.60;1.00;;;3.70;99.90;;;;;;4987312;28;20084;-39
2023/03/28 06:45:15;;;;;;;8.65;0.50;;;5.20;99.90;;;;;;4987057;28;20076;-39
2023/03/28 06:47:41;;;;;;;5.38;0.77;;;3.40;99.90;;;;;;4987129;28;20054;-39
2023/03/28 06:50:07;;;;;;;9.57;1.38;;;3.10;99.90;;;;;;4986647;28;20034;-39
2023/03/28 06:52:32;;;;;;;8.43;0.52;;;3.40;99.90;;;;;;4987342;28;20042;-39
2023/03/28 06:54:58;;;;;;;9.52;1.70;;;3.30;99.90;;;;;;4987532;28;20069;-39
2023/03/28 06:57:24;;;;;;;10.43;2.75;;;3.10;99.90;;;;;;4986122;28;20058;-39
2023/03/28 06:59:51;;;;;;;10.00;0.90;;;3.50;99.90;;;;;;4985647;28;20065;-39
2023/03/28 07:02:17;;;;;;;7.32;1.02;;;3.80;99.90;;;;;;4986936;28;20042;-39
2023/03/28 07:04:43;;;;;;;12.73;1.40;;;3.70;99.90;;;;;;4986470;28;20050;-39
2023/03/28 07:07:09;;;;;;;6.75;0.73;;;3.50;99.90;;;;;;4987304;28;20130;-39
2023/03/28 07:09:35;;;;;;;7.45;1.13;;;3.90;99.90;;;;;;4987216;28;20046;-39
2023/03/28 07:12:01;;;;;;;8.63;0.93;;;4.20;99.90;;;;;;4987395;28;20030;-39
2023/03/28 07:14:27;;;;;;;7.05;0.75;;;4.40;99.90;;;;;;4987278;28;20077;-39
2023/03/28 07:16:53;;;;;;;12.98;1.30;;;4.10;99.90;;;;;;4987170;28;20073;-39
2023/03/28 07:19:19;;;;;;;13.32;0.80;;;3.90;99.90;;;;;;4986998;28;20435;-39
2023/03/28 07:21:45;;;;;;;7.90;0.93;;;3.80;99.90;;;;;;4986678;28;20547;-39
2023/03/28 07:24:11;;;;;;;8.35;0.65;;;4.20;99.90;;;;;;4986846;28;20081;-39
2023/03/28 07:26:36;;;;;;;6.25;0.60;;;4.10;99.90;;;;;;4986549;28;20045;-39
2023/03/28 07:29:02;;;;;;;8.93;0.80;;;;;;;;;;4986779;28;20535;-38
2023/03/28 07:31:28;;;;;;;12.95;0.90;;;4.40;99.90;;;;;;4986924;28;20046;-38
2023/03/28 07:33:58;;;;;;;7.20;0.45;;;4.70;99.90;;;;;;4986369;28;20079;-39
2023/03/28 07:36:26;;;;;;;10.50;0.70;;;4.60;99.90;;;;;;4987657;28;20077;-39
2023/03/28 07:38:52;;;;;;;16.60;2.28;;;;;;;;;;4986929;28;20030;-39
2023/03/28 07:41:18;;;;;;;3.83;0.40;;;5.00;99.90;;;;;;4987633;28;20039;-39
2023/03/28 07:43:44;;;;;;;12.57;1.27;;;;;;;;;;4986964;28;20042;-38
2023/03/28 07:46:13;;;;;;;11.93;0.60;;;5.50;99.90;;;;;;4987281;28;20050;-38
2023/03/28 07:48:40;;;;;;;7.95;0.52;;;6.00;99.90;;;;;;4986799;28;20030;-39
2023/03/28 07:51:06;;;;;;;8.60;0.65;;;5.70;99.90;;;;;;4986897;28;20109;-39
2023/03/28 07:53:33;;;;;;;9.73;1.20;;;6.00;99.90;;;;;;4986609;28;20828;-39
2023/03/28 07:55:59;;;;;;;10.68;1.02;;;5.50;99.90;;;;;;4986583;28;20042;-39
2023/03/28 07:58:24;;;;;;;8.38;0.88;;;7.60;99.90;;;;;;4986412;28;20038;-39
2023/03/28 08:00:51;;;;;;;7.38;0.52;;;;;;;;;;4987180;28;20045;-39
2023/03/28 08:03:17;;;;;;;9.32;0.73;;;5.50;99.90;;;;;;4990541;28;20050;-38
2023/03/28 08:05:50;;;;;;;11.68;2.17;;;5.40;99.90;;;;;;4990451;28;20052;-38
2023/03/28 08:08:17;;;;;;;6.40;0.47;;;5.90;99.90;;;;;;4989831;28;20507;-39
2023/03/28 08:10:49;;;;;;;8.63;0.60;;;5.80;99.90;;;;;;4987704;28;20050;-40
2023/03/28 08:13:16;;;;;;;5.07;0.40;;;6.90;99.90;;;;;;4946833;28;20454;-39
2023/03/28 08:15:42;;;;;;;6.03;0.40;;;;;;;;;;4949011;28;20055;-40
2023/03/28 08:18:08;;;;;;;8.60;1.77;;;8.30;99.90;;;;;;4949340;28;20051;-40
2023/03/28 08:20:34;;;;;;;4.35;0.40;;;9.00;99.90;;;;;;4948911;28;20118;-40
2023/03/28 08:23:01;;;;;;;5.78;0.70;;;9.10;99.90;;;;;;4948724;28;20058;-39
2023/03/28 08:25:27;;;;;;;1.83;0.30;;;9.50;99.90;;;;;;4948185;28;20063;-40
2023/03/28 08:27:53;;;;;;;7.25;0.82;;;9.80;99.90;;;;;;4947890;28;20058;-40
2023/03/28 08:30:19;;;;;;;10.68;1.15;;;7.60;99.90;;;;;;4948134;28;20047;-39
2023/03/28 08:32:45;;;;;;;7.85;0.43;;;8.80;99.90;;;;;;4947624;28;20551;-40
2023/03/28 08:35:11;;;;;;;7.22;0.65;;;9.40;99.90;;;;;;4948156;28;20175;-40
2023/03/28 08:37:36;;;;;;;3.90;0.40;;;10.10;99.90;;;;;;4946844;28;20147;-40
2023/03/28 08:40:07;;;;;;;5.95;0.65;;;9.60;99.90;;;;;;4948634;28;20095;-40
2023/03/28 08:42:51;;;;;;;4.18;0.43;;;10.00;99.90;;;;;;4947750;28;20047;-41
2023/03/28 08:45:34;;;;;;;7.43;0.28;;;10.20;99.90;;;;;;4948448;28;20070;-41
2023/03/28 08:48:10;;;;;;;5.30;0.40;;;9.90;98.30;;;;;;4948892;28;20059;-40
2023/03/28 08:50:53;;;;;;;5.65;0.40;;;9.50;97.60;;;;;;4949447;28;20409;-40
2023/03/28 08:53:25;;;;;;;5.15;0.50;;;9.10;97.20;;;;;;4948427;28;20132;-40
2023/03/28 08:55:53;;;;;;;3.65;0.30;;;9.00;96.60;;;;;;4948074;28;20054;-40
2023/03/28 08:58:22;;;;;;;1.52;0.20;;;8.50;97.50;;;;;;4947774;28;20047;-40
2023/03/28 09:00:49;;;;;;;7.20;0.40;;;7.90;99.90;;;;;;4948091;28;20059;-40
2023/03/28 09:03:18;;;;;;;4.75;0.30;;;8.10;97.70;;;;;;4947144;28;20131;-40
2023/03/28 09:05:51;;;;;;;8.38;0.60;;;8.70;97.80;;;;;;4948099;28;20060;-40
2023/03/28 09:08:51;;;;;;;4.53;0.40;;;8.10;97.90;;;;;;4948233;28;20047;-40
2023/03/28 09:11:34;;;;;;;5.63;0.40;;;8.10;98.10;;;;;;4938735;28;20745;-40
2023/03/28 09:14:07;;;;;;;5.68;0.32;;;8.10;97.50;;;;;;4946023;28;20039;-40
2023/03/28 09:16:39;;;;;;;5.82;0.40;;;8.00;97.50;;;;;;4947827;28;20047;-40
2023/03/28 09:19:16;;;;;;;5.22;0.40;;;9.00;97.40;;;;;;4946609;28;20051;-40
2023/03/28 09:21:55;;;;;;;3.40;0.40;;;8.10;97.00;;;;;;4947507;28;20062;-40
2023/03/28 09:24:40;;;;;;;4.55;0.43;;;8.30;96.70;;;;;;4947475;28;20051;-40
2023/03/28 09:27:24;;;;;;;3.97;0.60;;;9.10;96.30;;;;;;4947454;28;20423;-40
2023/03/28 09:29:54;;;;;;;2.33;0.30;;;9.20;95.10;;;;;;4947878;28;20043;-40
2023/03/28 09:32:28;;;;;;;4.28;0.40;;;9.10;94.10;;;;;;4947818;28;20043;-40
2023/03/28 09:34:54;;;;;;;2.03;0.65;;;9.30;93.20;;;;;;4947008;28;20178;-40
2023/03/28 09:37:39;;;;;;;2.70;0.30;;;9.60;93.40;;;;;;4947590;28;20105;-40
2023/03/28 09:40:25;;;;;;;2.85;0.20;;;8.00;98.30;;;;;;4947096;28;20105;-40
2023/03/28 09:43:12;;;;;;;4.45;0.40;;;7.60;98.70;;;;;;4947670;28;20050;-40
2023/03/28 09:45:47;;;;;;;4.88;0.45;;;10.10;94.70;;;;;;4947112;28;20105;-40
2023/03/28 09:48:23;;;;;;;4.45;0.10;;;8.40;94.30;;;;;;4946710;28;20568;-40
2023/03/28 09:50:51;;;;;;;2.97;0.10;;;7.60;98.70;;;;;;4946601;28;20055;-40
2023/03/28 09:53:32;;;;;;;4.65;0.32;;;8.70;94.20;;;;;;4946647;28;20477;-40
2023/03/28 09:56:06;;;;;;;4.18;0.63;;;7.90;97.00;;;;;;4946783;28;20047;-40
2023/03/28 09:58:58;;;;;;;2.35;0.20;;;8.20;95.90;;;;;;4945883;29;20533;-40
2023/03/28 10:01:45;;;;;;;4.53;0.40;;;8.00;91.40;;;;;;4946544;28;20047;-40
2023/03/28 10:04:16;;;;;;;6.90;0.40;;;8.10;91.40;;;;;;4960188;28;20059;-40
2023/03/28 10:06:44;;;;;;;2.85;0.35;;;8.40;93.10;;;;;;4946195;28;20044;-40
2023/03/28 10:09:30;;;;;;;4.80;0.40;;;9.20;98.10;;;;;;4945325;28;20047;-40
2023/03/28 10:11:58;;;;;;;5.70;0.93;;;9.30;92.50;;;;;;4945475;28;20077;-40
2023/03/28 10:14:40;;;;;;;2.20;0.30;;;10.50;92.30;;;;;;4937561;28;20065;-40
2023/03/28 10:17:13;;;;;;;4.85;0.30;;;11.40;98.80;;;;;;4945929;28;20050;-40
2023/03/28 10:19:44;;;;;;;3.97;0.35;;;11.20;91.80;;;;;;4945918;28;20521;-40
2023/03/28 10:22:37;;;;;;;3.42;0.20;;;11.70;90.30;;;;;;4946358;28;20094;-40
2023/03/28 10:25:06;;;;;;;2.83;0.38;;;12.40;90.00;;;;;;4944983;28;20074;-41
2023/03/28 10:27:36;;;;;;;4.85;0.85;;;13.10;88.90;;;;;;4945849;28;20086;-40
2023/03/28 10:30:30;;;;;;;3.47;0.28;;;13.40;86.40;;;;;;4945960;28;20695;-40
2023/03/28 10:33:15;;;;;;;2.15;0.13;;;13.20;84.80;;;;;;4946526;29;20573;-41
2023/03/28 10:35:56;;;;;;;3.25;0.35;;;13.70;86.20;;;;;;4948911;28;20529;-41
2023/03/28 10:38:30;;;;;;;2.47;0.35;;;14.50;85.60;;;;;;4948684;28;20122;-41
2023/03/28 10:41:02;;;;;;;3.95;0.20;;;15.20;82.70;;;;;;4948978;28;20370;-41
2023/03/28 10:43:40;;;;;;;1.63;0.45;;;15.20;78.50;;;;;;4949015;28;20394;-40
2023/03/28 10:46:28;;;;;;;2.47;0.22;;;15.30;76.30;;;;;;4947348;28;20067;-40
2023/03/28 10:49:04;;;;;;;2.63;0.30;;;15.10;76.00;;;;;;4948300;28;20170;-40
2023/03/28 10:51:31;;;;;;;3.17;0.45;;;14.60;75.30;;;;;;4949073;28;20106;-40
2023/03/28 10:54:27;;;;;;;5.00;0.35;;;14.20;75.80;;;;;;4948884;28;20035;-40
2023/03/28 10:57:03;;;;;;;1.90;0.50;;;13.50;73.50;;;;;;4949035;28;20047;-40
2023/03/28 10:59:36;;;;;;;5.05;0.85;;;12.80;75.20;;;;;;4948530;28;20130;-40
2023/03/28 11:02:21;;;;;;;4.88;0.40;;;12.20;75.70;;;;;;4948685;28;20070;-40
2023/03/28 11:04:55;;;;;;;2.67;0.52;;;11.60;76.40;;;;;;4948429;28;20608;-40
2023/03/28 11:07:39;;;;;;;2.58;0.30;;;11.00;76.60;;;;;;4947715;28;20048;-40
2023/03/28 11:10:18;;;;;;;3.13;0.30;;;10.70;75.90;;;;;;4943172;28;20058;-40
2023/03/28 11:13:05;;;;;;;3.10;0.30;;;10.50;75.60;;;;;;4947743;28;20130;-40
2023/03/28 11:15:56;;;;;;;2.25;0.10;;;10.40;76.20;;;;;;4947294;28;20039;-40
2023/03/28 11:18:27;;;;;;;1.88;0.20;;;10.20;77.10;;;;;;4947408;28;20162;-40
2023/03/28 11:21:06;;;;;;;4.97;0.30;;;10.10;77.90;;;;;;4947652;28;20074;-41
2023/03/28 11:23:48;;;;;;;3.13;0.20;;;10.00;78.30;;;;;;4947799;28;20075;-40
2023/03/28 11:26:22;;;;;;;;;;;10.20;79.40;;;;;;4948263;28;20039;-41
2023/03/28 11:29:17;;;;;;;3.10;0.20;;;10.20;79.40;;;;;;4947464;29;19973;-41
2023/03/28 11:31:52;;;;;;;0.77;0.22;;;10.30;79.20;;;;;;4947102;28;20047;-40
2023/03/28 11:34:32;;;;;;;2.78;0.22;;;10.10;77.40;;;;;;4946888;28;20078;-41
2023/03/28 11:37:04;;;;;;;3.58;0.35;;;10.50;77.70;;;;;;4947152;28;20051;-40
2023/03/28 11:39:47;;;;;;;3.15;0.30;;;9.80;77.90;;;;;;4946756;28;20561;-40
2023/03/28 11:42:23;;;;;;;2.75;0.30;;;10.20;79.60;;;;;;4947261;28;20726;-40
2023/03/28 11:45:12;;;;;;;3.17;0.40;;;10.30;80.30;;;;;;4947203;28;20063;-40
2023/03/28 11:48:04;;;;;;;2.58;0.30;;;10.50;79.70;;;;;;4948103;28;20074;-40
2023/03/28 11:50:52;;;;;;;4.00;0.60;;;10.60;79.90;;;;;;4946991;28;20054;-39
2023/03/28 11:53:41;;;;;;;4.22;0.55;;;10.70;79.80;;;;;;4946780;28;20050;-39
2023/03/28 11:56:29;;;;;;;1.92;0.30;;;10.90;78.80;;;;;;4947220;28;20047;-39
2023/03/28 11:59:01;;;;;;;1.88;0.50;;;11.00;79.00;;;;;;4947481;28;20043;-38
2023/03/28 12:01:30;;;;;;;;;;;11.20;79.60;;;;;;4948099;28;20040;-39
2023/03/28 12:04:27;;;;;;;4.90;0.63;;;11.30;79.90;;;;;;4947457;28;19918;-39
2023/03/28 12:07:08;;;;;;;3.28;0.40;;;11.20;78.30;;;;;;4948129;28;20110;-38
2023/03/28 12:09:59;;;;;;;3.35;0.30;;;11.20;78.70;;;;;;4947379;28;20058;-39
2023/03/28 12:12:32;;;;;;;2.33;0.75;;;11.10;79.00;;;;;;4947430;28;20113;-38
2023/03/28 12:15:06;;;;;;;3.05;0.30;;;11.10;80.20;;;;;;4947441;28;20043;-38
2023/03/28 12:17:47;;;;;;;3.92;0.38;;;11.20;79.40;;;;;;4947635;28;20098;-39
2023/03/28 12:20:31;;;;;;;4.35;0.40;;;11.20;78.10;;;;;;4946487;28;20039;-39
2023/03/28 12:23:02;;;;;;;5.10;0.70;;;11.20;78.80;;;;;;4944753;28;20051;-40
2023/03/28 12:26:12;;;;;;;4.93;0.30;;;11.40;79.30;;;;;;4935372;28;20051;-41
2023/03/28 12:28:45;;;;;;;7.40;1.63;;;11.60;76.80;;;;;;4963075;28;20061;-41
2023/03/28 12:31:20;;;;;;;3.80;0.60;;;11.50;79.00;;;;;;4964059;28;20101;-42
2023/03/28 12:34:06;;;;;;;3.80;0.57;;;11.40;79.20;;;;;;4965737;28;20046;-40
2023/03/28 12:37:10;;;;;;;2.75;0.30;;;11.40;78.60;;;;;;4965298;28;20473;-39
2023/03/28 12:39:47;;;;;;;6.85;0.57;;;11.40;78.70;;;;;;4964786;28;20501;-40
2023/03/28 12:42:17;;;;;;;2.65;0.40;;;11.20;78.80;;;;;;4964879;28;20789;-38
2023/03/28 12:44:52;;;;;;;4.07;0.70;;;11.30;79.60;;;;;;4963098;28;20808;-40
2023/03/28 12:47:26;;;;;;;4.82;0.40;;;11.00;79.00;;;;;;4964971;28;20179;-42
2023/03/28 12:49:57;;;;;;;3.30;0.30;;;10.90;78.90;;;;;;4968413;28;20192;-39
2023/03/28 12:52:35;;;;;;;3.53;0.50;;;10.80;79.00;;;;;;4969085;28;20078;-39
2023/03/28 12:55:07;;;;;;;5.25;0.40;;;10.60;79.30;;;;;;4969790;28;20046;-49
2023/03/28 12:57:42;;;;;;;3.10;0.40;;;10.60;78.80;;;;;;4968039;28;20074;-52
2023/03/28 13:00:27;;;;;;;3.30;0.30;;;10.50;78.00;;;;;;4949409;28;20051;-51
2023/03/28 13:03:17;;;;;;;1.58;0.40;;;10.30;76.70;;;;;;4963619;28;20061;-53
2023/03/28 13:06:04;;;;;;;6.63;0.68;;;10.10;77.30;;;;;;4964359;28;20147;-54
2023/03/28 13:08:48;;;;;;;4.90;0.88;;;9.90;78.50;;;;;;4964788;28;20093;-51
2023/03/28 13:11:38;;;;;;;3.60;0.40;;;9.90;79.90;;;;;;4941688;28;20063;-51
2023/03/28 13:14:22;;;;;;;3.10;0.40;;;9.90;79.50;;;;;;4945222;28;20054;-56
2023/03/28 13:16:55;;;;;;;3.85;1.05;;;9.80;79.60;;;;;;4944964;28;20045;-55
2023/03/28 13:19:41;;;;;;;5.13;0.40;;;9.80;80.00;;;;;;4946631;28;20047;-55
2023/03/28 13:22:22;;;;;;;1.75;0.40;;;9.70;79.20;;;;;;4949369;28;20178;-53